createdAt,value
2018-05-18T00:01:57.331Z,28.73
2018-05-18T00:04:24.908Z,25.50
2018-05-18T00:06:52.482Z,23.67
2018-05-18T00:09:20.047Z,27.67
2018-05-18T00:11:47.595Z,31.87
2018-05-18T00:14:15.166Z,31.37
2018-05-18T00:16:42.811Z,28.77
2018-05-18T00:19:10.430Z,27.70
2018-05-18T00:21:38.120Z,28.67
2018-05-18T00:24:05.673Z,30.17
2018-05-18T00:26:33.394Z,32.73
2018-05-18T00:29:01.711Z,31.20
2018-05-18T00:31:29.309Z,32.23
2018-05-18T00:33:56.880Z,34.97
2018-05-18T00:36:24.458Z,34.47
2018-05-18T00:38:52.903Z,35.80
2018-05-18T00:41:20.464Z,36.43
2018-05-18T00:43:48.019Z,48.17
2018-05-18T00:46:15.588Z,40.93
2018-05-18T00:48:43.180Z,38.73
2018-05-18T00:51:11.520Z,34.07
2018-05-18T00:53:39.076Z,27.67
2018-05-18T00:56:06.637Z,34.40
2018-05-18T00:58:34.179Z,28.03
2018-05-18T01:01:01.747Z,31.67
2018-05-18T01:03:29.297Z,33.80
2018-05-18T01:05:56.903Z,28.57
2018-05-18T01:08:25.213Z,31.83
2018-05-18T01:10:52.779Z,28.70
2018-05-18T01:13:20.328Z,26.77
2018-05-18T01:15:47.960Z,28.77
2018-05-18T01:18:15.457Z,20.47
2018-05-18T01:20:43.063Z,29.57
2018-05-18T01:23:10.636Z,22.97
2018-05-18T01:25:38.950Z,23.43
2018-05-18T01:28:06.534Z,27.50
2018-05-18T01:30:34.084Z,26.00
2018-05-18T01:33:01.644Z,24.97
2018-05-18T01:35:29.215Z,32.60
2018-05-18T01:37:56.792Z,25.43
2018-05-18T01:40:24.455Z,19.73
2018-05-18T01:42:52.177Z,34.40
2018-05-18T01:45:19.758Z,30.50
2018-05-18T01:47:47.335Z,29.33
2018-05-18T01:50:14.908Z,39.40
2018-05-18T01:52:42.722Z,27.70
2018-05-18T01:55:10.289Z,27.27
2018-05-18T01:57:37.965Z,25.83
2018-05-18T02:00:05.668Z,27.27
2018-05-18T02:02:34.036Z,36.57
2018-05-18T02:05:01.693Z,47.77
2018-05-18T02:07:29.332Z,43.67
2018-05-18T02:09:56.912Z,37.73
2018-05-18T02:12:24.462Z,42.90
2018-05-18T02:14:52.032Z,36.83
2018-05-18T02:17:19.599Z,30.43
2018-05-18T02:19:47.175Z,29.07
2018-05-18T02:22:15.492Z,34.27
2018-05-18T02:24:43.080Z,29.60
2018-05-18T02:27:10.698Z,32.27
2018-05-18T02:29:38.272Z,30.00
2018-05-18T02:32:05.832Z,39.13
2018-05-18T02:34:33.575Z,33.43
2018-05-18T02:37:01.152Z,32.10
2018-05-18T02:39:28.692Z,33.90
2018-05-18T02:41:56.276Z,34.57
2018-05-18T02:44:23.840Z,28.50
2018-05-18T02:46:51.416Z,33.33
2018-05-18T02:49:18.980Z,28.47
2018-05-18T02:51:46.643Z,30.57
2018-05-18T02:54:14.264Z,27.67
2018-05-18T02:56:41.820Z,32.83
2018-05-18T02:59:09.378Z,29.60
2018-05-18T03:01:37.851Z,28.97
2018-05-18T03:04:05.403Z,29.13
2018-05-18T03:06:33.888Z,30.50
2018-05-18T03:09:02.305Z,46.23
2018-05-18T03:11:29.880Z,46.07
2018-05-18T03:13:57.435Z,37.20
2018-05-18T03:16:25.007Z,30.13
2018-05-18T03:18:52.576Z,28.53
2018-05-18T03:21:20.159Z,34.57
2018-05-18T03:23:47.715Z,31.40
2018-05-18T03:26:15.272Z,34.87
2018-05-18T03:28:42.827Z,38.70
2018-05-18T03:31:10.406Z,38.23
2018-05-18T03:33:37.953Z,42.87
2018-05-18T03:36:05.612Z,32.37
2018-05-18T03:38:33.425Z,35.97
2018-05-18T03:41:00.991Z,32.30
2018-05-18T03:43:28.560Z,31.40
2018-05-18T03:45:56.198Z,24.77
2018-05-18T03:48:23.776Z,29.90
2018-05-18T03:50:51.416Z,33.40
2018-05-18T03:53:19.090Z,26.57
2018-05-18T03:55:46.642Z,32.73
2018-05-18T03:58:14.215Z,28.77
2018-05-18T04:00:41.775Z,27.80
2018-05-18T04:03:21.276Z,29.30
2018-05-18T04:06:01.507Z,30.40
2018-05-18T04:08:51.603Z,26.73
2018-05-18T04:11:20.076Z,22.13
2018-05-18T04:13:48.416Z,22.67
2018-05-18T04:16:15.972Z,23.90
2018-05-18T04:18:43.600Z,25.47
2018-05-18T04:21:11.912Z,20.00
2018-05-18T04:23:39.483Z,22.13
2018-05-18T04:26:07.041Z,20.30
2018-05-18T04:28:34.592Z,23.03
2018-05-18T04:31:02.159Z,26.43
2018-05-18T04:33:29.821Z,22.73
2018-05-18T04:35:57.384Z,23.10
2018-05-18T04:38:25.009Z,23.90
2018-05-18T04:40:53.331Z,27.30
2018-05-18T04:43:20.933Z,20.53
2018-05-18T04:45:48.460Z,25.37
2018-05-18T04:48:16.021Z,22.33
2018-05-18T04:50:43.916Z,26.60
2018-05-18T04:53:11.415Z,25.53
2018-05-18T04:55:39.012Z,33.63
2018-05-18T04:58:06.597Z,28.57
2018-05-18T05:00:34.175Z,31.50
2018-05-18T05:03:02.547Z,26.30
2018-05-18T05:05:30.935Z,29.77
2018-05-18T05:07:58.487Z,23.37
2018-05-18T05:10:26.975Z,29.93
2018-05-18T05:12:55.315Z,34.60
2018-05-18T05:15:22.900Z,36.67
2018-05-18T05:17:51.259Z,28.10
2018-05-18T05:20:18.815Z,35.87
2018-05-18T05:22:46.411Z,40.23
2018-05-18T05:25:14.820Z,40.67
2018-05-18T05:27:42.368Z,39.07
2018-05-18T05:30:10.084Z,42.77
2018-05-18T05:32:37.709Z,43.50
2018-05-18T05:35:05.265Z,49.30
2018-05-18T05:37:33.344Z,57.50
2018-05-18T05:40:00.921Z,58.60
2018-05-18T05:42:28.517Z,52.03
2018-05-18T05:44:56.116Z,50.47
2018-05-18T05:47:23.687Z,51.20
2018-05-18T05:49:51.248Z,49.87
2018-05-18T05:52:18.816Z,54.20
2018-05-18T05:54:46.400Z,50.97
2018-05-18T05:57:13.985Z,49.80
2018-05-18T05:59:42.331Z,53.83
2018-05-18T06:02:09.888Z,51.50
2018-05-18T06:04:37.460Z,49.13
2018-05-18T06:07:05.015Z,41.93
2018-05-18T06:09:32.597Z,45.00
2018-05-18T06:12:01.137Z,51.37
2018-05-18T06:14:28.708Z,38.07
2018-05-18T06:16:56.338Z,40.63
2018-05-18T06:19:23.924Z,37.67
2018-05-18T06:21:51.527Z,37.47
2018-05-18T06:24:19.886Z,39.33
2018-05-18T06:26:47.440Z,45.20
2018-05-18T06:29:15.129Z,39.10
2018-05-18T06:31:43.448Z,38.10
2018-05-18T06:34:11.017Z,39.43
2018-05-18T06:36:38.596Z,36.83
2018-05-18T06:39:06.217Z,41.03
2018-05-18T06:41:33.759Z,34.80
2018-05-18T06:44:01.312Z,39.10
2018-05-18T06:46:29.727Z,34.27
2018-05-18T06:48:57.308Z,34.40
2018-05-18T06:51:24.883Z,29.23
2018-05-18T06:53:52.432Z,21.97
2018-05-18T06:56:20.059Z,24.00
2018-05-18T06:58:47.670Z,19.73
2018-05-18T07:01:15.189Z,19.77
2018-05-18T07:03:42.751Z,20.10
2018-05-18T07:06:10.440Z,21.33
2018-05-18T07:08:37.984Z,22.93
2018-05-18T07:11:05.536Z,19.27
2018-05-18T07:13:33.112Z,19.13
2018-05-18T07:16:00.666Z,23.60
2018-05-18T07:18:28.253Z,21.03
2018-05-18T07:20:56.579Z,27.43
2018-05-18T07:23:24.151Z,38.17
2018-05-18T07:25:51.740Z,34.50
2018-05-18T07:28:19.309Z,28.40
2018-05-18T07:30:46.878Z,40.20
2018-05-18T07:33:14.439Z,37.70
2018-05-18T07:35:42.770Z,37.93
2018-05-18T07:38:10.344Z,47.50
2018-05-18T07:40:37.902Z,43.17
2018-05-18T07:43:05.493Z,44.40
2018-05-18T07:45:33.050Z,43.03
2018-05-18T07:48:00.669Z,45.20
2018-05-18T07:50:28.223Z,43.07
2018-05-18T07:52:55.815Z,48.33
2018-05-18T07:55:23.494Z,40.13
2018-05-18T07:57:51.095Z,47.73
2018-05-18T08:00:18.643Z,44.43
2018-05-18T08:02:46.249Z,39.87
2018-05-18T08:05:13.815Z,39.43
2018-05-18T08:07:41.546Z,42.30
2018-05-18T08:10:09.128Z,36.50
2018-05-18T08:12:36.730Z,39.20
2018-05-18T08:15:04.416Z,42.03
2018-05-18T08:17:31.902Z,36.93
2018-05-18T08:19:59.467Z,41.90
2018-05-18T08:22:27.031Z,38.10
2018-05-18T08:24:54.629Z,33.97
2018-05-18T08:27:24.017Z,38.60
2018-05-18T08:29:51.599Z,33.73
2018-05-18T08:32:19.917Z,32.43
2018-05-18T08:34:47.495Z,31.03
2018-05-18T08:37:15.041Z,34.30
2018-05-18T08:39:42.816Z,34.10
2018-05-18T08:42:10.492Z,36.13
2018-05-18T08:44:38.084Z,33.67
2018-05-18T08:47:06.462Z,36.07
2018-05-18T08:49:34.804Z,39.77
2018-05-18T08:52:02.392Z,32.87
2018-05-18T08:54:29.951Z,34.33
2018-05-18T08:56:57.512Z,31.10
2018-05-18T08:59:25.155Z,33.43
2018-05-18T09:01:52.820Z,30.80
2018-05-18T09:04:20.407Z,31.40
2018-05-18T09:06:48.815Z,32.80
2018-05-18T09:09:16.385Z,34.00
2018-05-18T09:11:44.081Z,28.73
2018-05-18T09:14:11.704Z,28.03
2018-05-18T09:16:39.304Z,26.17
2018-05-18T09:19:06.864Z,30.17
2018-05-18T09:21:34.432Z,24.67
2018-05-18T09:24:02.032Z,23.50
2018-05-18T09:26:29.611Z,27.67
2018-05-18T09:28:57.155Z,21.43
2018-05-18T09:31:24.759Z,26.90
2018-05-18T09:33:52.449Z,24.13
2018-05-18T09:36:20.703Z,24.50
2018-05-18T09:38:48.281Z,25.33
2018-05-18T09:41:15.875Z,23.00
2018-05-18T09:43:43.466Z,24.70
2018-05-18T09:46:11.011Z,27.40
2018-05-18T09:48:38.587Z,26.90
2018-05-18T09:51:06.313Z,28.97
2018-05-18T09:53:33.908Z,24.83
2018-05-18T09:56:01.784Z,19.33
2018-05-18T09:58:29.348Z,15.97
2018-05-18T10:00:56.975Z,25.10
2018-05-18T10:03:24.684Z,27.57
2018-05-18T10:05:53.016Z,24.47
2018-05-18T10:08:20.595Z,20.43
2018-05-18T10:10:48.160Z,20.23
2018-05-18T10:13:15.751Z,22.37
2018-05-18T10:15:43.352Z,22.57
2018-05-18T10:18:10.967Z,20.30
2018-05-18T10:20:38.576Z,23.00
2018-05-18T10:23:06.151Z,19.63
2018-05-18T10:25:33.747Z,22.17
2018-05-18T10:28:01.312Z,22.23
2018-05-18T10:30:29.848Z,19.80
2018-05-18T10:32:57.408Z,20.23
2018-05-18T10:35:24.989Z,21.27
2018-05-18T10:37:52.592Z,19.50
2018-05-18T10:40:20.921Z,22.63
2018-05-18T10:42:48.574Z,24.90
2018-05-18T10:45:16.199Z,21.37
2018-05-18T10:47:43.716Z,22.53
2018-05-18T10:50:11.300Z,23.33
2018-05-18T10:52:38.855Z,16.53
2018-05-18T10:55:06.434Z,18.37
2018-05-18T10:57:34.768Z,21.13
2018-05-18T11:00:02.331Z,19.70
2018-05-18T11:02:29.891Z,19.07
2018-05-18T11:04:57.443Z,16.10
2018-05-18T11:07:25.017Z,20.43
2018-05-18T11:09:52.591Z,23.00
2018-05-18T11:12:20.172Z,18.87
2018-05-18T11:14:48.499Z,24.70
2018-05-18T11:17:16.089Z,17.53
2018-05-18T11:19:43.658Z,15.60
2018-05-18T11:22:11.227Z,17.60
2018-05-18T11:24:39.564Z,27.50
2018-05-18T11:27:07.220Z,20.90
2018-05-18T11:29:34.696Z,22.20
2018-05-18T11:32:02.320Z,15.60
2018-05-18T11:34:29.928Z,18.93
2018-05-18T11:36:57.520Z,18.30
2018-05-18T11:39:25.858Z,19.37
2018-05-18T11:41:53.403Z,16.00
2018-05-18T11:44:20.976Z,17.50
2018-05-18T11:46:48.547Z,18.83
2018-05-18T11:49:16.305Z,19.13
2018-05-18T11:51:43.831Z,18.47
2018-05-18T11:54:11.412Z,19.03
2018-05-18T11:56:38.961Z,21.67
2018-05-18T11:59:06.533Z,16.07
2018-05-18T12:01:34.083Z,16.73
2018-05-18T12:04:01.667Z,19.97
2018-05-18T12:06:29.415Z,18.10
2018-05-18T12:08:57.050Z,16.30
2018-05-18T12:11:24.603Z,18.13
2018-05-18T12:13:52.177Z,19.57
2018-05-18T12:16:19.800Z,17.37
2018-05-18T12:18:48.432Z,19.90
2018-05-18T12:21:16.002Z,16.23
2018-05-18T12:23:43.559Z,19.30
2018-05-18T12:26:11.131Z,18.60
2018-05-18T12:28:38.824Z,18.30
2018-05-18T12:31:07.156Z,16.03
2018-05-18T12:33:34.719Z,19.67
2018-05-18T12:36:02.289Z,14.30
2018-05-18T12:38:29.930Z,20.90
2018-05-18T12:40:57.514Z,16.70
2018-05-18T12:43:25.074Z,19.80
2018-05-18T12:45:52.660Z,16.70
2018-05-18T12:48:20.367Z,16.47
2018-05-18T12:50:48.047Z,15.80
2018-05-18T12:53:15.613Z,19.93
2018-05-18T12:55:43.209Z,17.03
2018-05-18T12:58:10.803Z,17.23
2018-05-18T13:00:38.688Z,18.93
2018-05-18T13:03:06.595Z,20.37
2018-05-18T13:05:34.188Z,14.87
2018-05-18T13:08:02.576Z,16.63
2018-05-18T13:10:30.098Z,16.97
2018-05-18T13:12:57.823Z,17.47
2018-05-18T13:15:25.412Z,16.00
2018-05-18T13:17:52.999Z,21.00
2018-05-18T13:20:21.337Z,13.93
2018-05-18T13:22:48.935Z,16.70
2018-05-18T13:25:17.260Z,19.63
2018-05-18T13:27:44.844Z,20.30
2018-05-18T13:30:12.424Z,15.90
2018-05-18T13:32:40.130Z,16.10
2018-05-18T13:35:07.700Z,17.63
2018-05-18T13:37:35.286Z,19.13
2018-05-18T13:40:02.859Z,18.97
2018-05-18T13:42:30.447Z,18.43
2018-05-18T13:44:58.792Z,16.53
2018-05-18T13:47:26.367Z,19.00
2018-05-18T13:49:53.923Z,16.73
2018-05-18T13:52:21.491Z,18.13
2018-05-18T13:54:49.976Z,14.57
2018-05-18T13:57:18.443Z,13.70
2018-05-18T13:59:45.919Z,22.33
2018-05-18T14:02:14.238Z,16.13
2018-05-18T14:04:41.804Z,18.23
2018-05-18T14:07:09.668Z,16.80
2018-05-18T14:09:37.330Z,16.07
2018-05-18T14:12:04.900Z,13.83
2018-05-18T14:14:32.520Z,15.93
2018-05-18T14:17:00.107Z,16.07
2018-05-18T14:19:27.652Z,19.47
2018-05-18T14:21:55.227Z,17.77
2018-05-18T14:24:22.799Z,14.23
2018-05-18T14:26:50.379Z,15.70
2018-05-18T14:29:18.014Z,15.07
2018-05-18T14:31:45.603Z,15.77
2018-05-18T14:34:13.181Z,16.83
2018-05-18T14:36:41.601Z,14.63
2018-05-18T14:39:09.179Z,17.27
2018-05-18T14:41:36.828Z,17.20
2018-05-18T14:44:04.392Z,17.17
2018-05-18T14:46:32.090Z,14.13
2018-05-18T14:48:59.708Z,16.17
2018-05-18T14:51:27.302Z,15.67
2018-05-18T14:53:55.756Z,16.33
2018-05-18T14:56:23.411Z,19.13
2018-05-18T14:58:50.960Z,12.63
2018-05-18T15:01:18.572Z,17.20
2018-05-18T15:03:46.142Z,13.70
2018-05-18T15:06:14.479Z,16.73
2018-05-18T15:08:42.052Z,13.67
2018-05-18T15:11:09.616Z,16.23
2018-05-18T15:13:37.206Z,16.80
2018-05-18T15:16:04.770Z,16.60
2018-05-18T15:18:32.342Z,16.97
2018-05-18T15:21:00.658Z,12.20
2018-05-18T15:23:28.246Z,14.03
2018-05-18T15:25:55.870Z,15.73
2018-05-18T15:28:23.428Z,14.90
2018-05-18T15:30:50.981Z,14.00
2018-05-18T15:33:18.701Z,14.47
2018-05-18T15:35:46.257Z,14.60
2018-05-18T15:38:13.918Z,13.83
2018-05-18T15:40:41.484Z,13.80
2018-05-18T15:43:09.096Z,14.83
2018-05-18T15:45:36.808Z,14.57
2018-05-18T15:48:04.372Z,12.43
2018-05-18T15:50:31.973Z,19.70
2018-05-18T15:52:59.587Z,16.33
2018-05-18T15:55:27.169Z,15.90
2018-05-18T15:57:55.504Z,13.77
2018-05-18T16:00:23.094Z,16.37
2018-05-18T16:02:50.656Z,18.30
2018-05-18T16:05:18.231Z,15.60
2018-05-18T16:07:46.572Z,18.60
2018-05-18T16:10:14.157Z,17.87
2018-05-18T16:12:41.712Z,20.90
2018-05-18T16:15:10.026Z,24.20
2018-05-18T16:17:37.592Z,18.30
2018-05-18T16:20:05.165Z,21.67
2018-05-18T16:22:32.750Z,17.17
2018-05-18T16:25:00.292Z,15.77
2018-05-18T16:27:27.851Z,17.70
2018-05-18T16:29:55.508Z,19.37
2018-05-18T16:32:23.096Z,14.97
2018-05-18T16:34:50.651Z,18.20
2018-05-18T16:37:18.367Z,18.47
2018-05-18T16:39:45.915Z,16.47
2018-05-18T16:42:14.283Z,20.40
2018-05-18T16:44:42.652Z,17.30
2018-05-18T16:47:11.715Z,17.70
2018-05-18T16:49:39.307Z,18.13
2018-05-18T16:52:07.041Z,17.50
2018-05-18T16:54:34.588Z,17.57
2018-05-18T16:57:02.165Z,19.73
2018-05-18T16:59:29.802Z,15.77
2018-05-18T17:01:57.364Z,15.07
2018-05-18T17:04:25.040Z,16.07
2018-05-18T17:06:52.692Z,18.43
2018-05-18T17:09:20.372Z,20.70
2018-05-18T17:11:47.941Z,16.37
2018-05-18T17:14:15.660Z,16.67
2018-05-18T17:16:43.216Z,18.20
2018-05-18T17:19:11.555Z,17.80
2018-05-18T17:21:39.128Z,22.17
2018-05-18T17:24:06.729Z,13.60
2018-05-18T17:26:34.348Z,20.07
2018-05-18T17:29:01.936Z,18.17
2018-05-18T17:31:29.510Z,21.43
2018-05-18T17:33:57.076Z,18.10
2018-05-18T17:36:24.636Z,14.63
2018-05-18T17:38:52.172Z,18.13
2018-05-18T17:41:20.624Z,18.83
2018-05-18T17:43:48.183Z,11.67
2018-05-18T17:46:15.740Z,17.80
2018-05-18T17:48:43.568Z,14.40
2018-05-18T17:51:11.164Z,17.03
2018-05-18T17:53:38.800Z,18.23
2018-05-18T17:56:07.140Z,15.70
2018-05-18T17:58:35.509Z,21.23
2018-05-18T18:01:03.895Z,13.43
2018-05-18T18:03:32.265Z,16.60
2018-05-18T18:05:59.795Z,16.97
2018-05-18T18:08:27.387Z,12.77
2018-05-18T18:10:55.771Z,13.53
2018-05-18T18:13:24.086Z,15.10
2018-05-18T18:15:51.837Z,17.87
2018-05-18T18:18:19.398Z,14.90
2018-05-18T18:20:46.976Z,14.73
2018-05-18T18:23:14.548Z,16.73
2018-05-18T18:25:42.103Z,14.10
2018-05-18T18:28:09.764Z,16.83
2018-05-18T18:30:37.345Z,18.27
2018-05-18T18:33:04.914Z,21.00
2018-05-18T18:35:32.466Z,19.40
2018-05-18T18:38:00.017Z,20.13
2018-05-18T18:40:27.591Z,23.10
2018-05-18T18:42:55.144Z,22.13
2018-05-18T18:45:22.744Z,19.57
2018-05-18T18:47:50.430Z,22.30
2018-05-18T18:50:18.121Z,29.23
2018-05-18T18:52:45.689Z,25.77
2018-05-18T18:55:13.262Z,21.50
2018-05-18T18:57:40.880Z,21.70
2018-05-18T19:00:08.528Z,20.30
2018-05-18T19:02:36.095Z,24.37
2018-05-18T19:05:03.739Z,27.90
2018-05-18T19:07:32.126Z,35.97
2018-05-18T19:09:59.683Z,33.40
2018-05-18T19:12:27.268Z,35.00
2018-05-18T19:14:54.827Z,32.23
2018-05-18T19:17:22.411Z,21.63
2018-05-18T19:19:49.961Z,18.73
2018-05-18T19:22:17.540Z,21.73
2018-05-18T19:24:45.063Z,24.80
2018-05-18T19:27:12.619Z,24.37
2018-05-18T19:29:40.274Z,19.40
2018-05-18T19:32:07.755Z,23.20
2018-05-18T19:34:35.316Z,23.53
2018-05-18T19:37:02.955Z,24.87
2018-05-18T19:39:30.517Z,24.17
2018-05-18T19:41:58.174Z,24.17
2018-05-18T19:44:26.543Z,25.13
2018-05-18T19:46:54.109Z,19.67
2018-05-18T19:49:21.712Z,22.53
2018-05-18T19:51:49.281Z,28.90
2018-05-18T19:54:16.877Z,22.00
2018-05-18T19:56:45.235Z,24.10
2018-05-18T19:59:12.803Z,28.77
2018-05-18T20:01:41.165Z,27.57
2018-05-18T20:04:08.755Z,31.77
2018-05-18T20:06:36.337Z,45.00
2018-05-18T20:09:03.904Z,44.60
2018-05-18T20:11:31.657Z,44.30
2018-05-18T20:13:59.243Z,44.93
2018-05-18T20:16:26.920Z,41.67
2018-05-18T20:18:54.756Z,41.33
2018-05-18T20:21:22.461Z,32.47
2018-05-18T20:23:50.043Z,21.67
2018-05-18T20:26:18.396Z,17.33
2018-05-18T20:28:45.952Z,20.03
2018-05-18T20:31:13.524Z,23.27
2018-05-18T20:33:41.875Z,18.47
2018-05-18T20:36:09.492Z,25.43
2018-05-18T20:38:37.056Z,27.13
2018-05-18T20:41:04.642Z,25.67
2018-05-18T20:43:32.213Z,26.37
2018-05-18T20:45:59.860Z,27.30
2018-05-18T20:48:27.436Z,27.70
2018-05-18T20:50:55.019Z,23.57
2018-05-18T20:53:22.649Z,18.10
2018-05-18T20:55:50.336Z,20.23
2018-05-18T20:58:18.739Z,21.27
2018-05-18T21:00:46.365Z,18.27
2018-05-18T21:03:13.924Z,24.60
2018-05-18T21:05:41.516Z,18.43
2018-05-18T21:08:09.108Z,21.50
2018-05-18T21:10:36.880Z,22.23
2018-05-18T21:13:04.561Z,15.73
2018-05-18T21:15:32.112Z,17.70
2018-05-18T21:17:59.716Z,17.40
2018-05-18T21:20:27.280Z,18.23
2018-05-18T21:22:54.888Z,22.43
2018-05-18T21:25:22.559Z,16.63
2018-05-18T21:27:50.139Z,20.20
2018-05-18T21:30:17.691Z,15.80
2018-05-18T21:32:45.275Z,20.47
2018-05-18T21:35:12.845Z,19.23
2018-05-18T21:37:40.412Z,17.20
2018-05-18T21:40:08.740Z,18.30
2018-05-18T21:42:36.357Z,20.03
2018-05-18T21:45:04.824Z,18.47
2018-05-18T21:47:32.676Z,20.33
2018-05-18T21:50:00.327Z,22.53
2018-05-18T21:52:27.909Z,20.83
2018-05-18T21:54:55.486Z,19.07
2018-05-18T21:57:23.799Z,15.97
2018-05-18T21:59:51.403Z,17.70
2018-05-18T22:02:18.956Z,20.40
2018-05-18T22:04:46.564Z,17.70
2018-05-18T22:07:14.137Z,22.30
2018-05-18T22:09:41.735Z,20.43
2018-05-18T22:12:09.288Z,20.43
2018-05-18T22:14:36.884Z,17.50
2018-05-18T22:17:04.533Z,22.00
2018-05-18T22:19:32.140Z,26.00
2018-05-18T22:21:59.717Z,25.13
2018-05-18T22:24:27.272Z,20.57
2018-05-18T22:26:55.037Z,18.77
2018-05-18T22:29:22.604Z,20.50
2018-05-18T22:31:50.290Z,18.10
2018-05-18T22:34:18.021Z,18.80
2018-05-18T22:36:45.600Z,21.20
2018-05-18T22:39:13.179Z,22.67
2018-05-18T22:41:40.756Z,20.13
2018-05-18T22:44:08.325Z,19.80
2018-05-18T22:46:36.666Z,19.60
2018-05-18T22:49:04.256Z,25.13
2018-05-18T22:51:32.623Z,18.43
2018-05-18T22:54:01.015Z,18.90
2018-05-18T22:56:28.577Z,21.57
2018-05-18T22:58:56.895Z,18.70
2018-05-18T23:01:24.485Z,16.50
2018-05-18T23:03:52.096Z,18.80
2018-05-18T23:06:19.676Z,17.47
2018-05-18T23:08:47.334Z,19.07
2018-05-18T23:11:14.901Z,18.77
2018-05-18T23:13:42.491Z,17.07
2018-05-18T23:16:10.055Z,18.43
2018-05-18T23:18:37.636Z,18.87
2018-05-18T23:21:05.186Z,21.23
2018-05-18T23:23:32.756Z,18.37
2018-05-18T23:26:01.100Z,21.00
2018-05-18T23:28:28.680Z,18.83
2018-05-18T23:30:56.247Z,18.47
2018-05-18T23:33:23.816Z,18.77
2018-05-18T23:35:52.393Z,15.67
2018-05-18T23:38:19.959Z,16.73
2018-05-18T23:40:48.292Z,14.93
2018-05-18T23:43:15.868Z,14.87
2018-05-18T23:45:43.433Z,15.20
2018-05-18T23:48:11.063Z,16.50
2018-05-18T23:50:38.783Z,19.57
2018-05-18T23:53:07.139Z,18.87
2018-05-18T23:55:34.705Z,16.90
2018-05-18T23:58:02.264Z,14.87
